Terminal Aerodrome Forecast
Issued by NWS

Home | Current Version | Previous Version | Text Only | Print | Product List | Glossary On
Versions: 1 2 3 4 5 6 7 8 9 10 11 12
000
FTUS45 KREV 010520
TAFTVL
TAF
KTVL 010520Z 0106/0206 20012G20KT P6SM FEW120 WS020/25045KT
     FM011800 20010G18KT P6SM SKC
     FM020300 20004KT P6SM SKC=

USA.gov is the U.S. government's official web portal to all federal, state and local government web resources and services.